createdAt,value
2017-02-24T00:00:31.664Z,980.63
2017-02-24T00:01:12.256Z,980.64
2017-02-24T00:01:52.886Z,980.57
2017-02-24T00:02:33.539Z,980.6
2017-02-24T00:03:14.158Z,980.53
2017-02-24T00:03:54.747Z,980.61
2017-02-24T00:04:35.365Z,980.52
2017-02-24T00:05:15.981Z,980.48
2017-02-24T00:05:56.584Z,980.65
2017-02-24T00:06:37.184Z,980.53
2017-02-24T00:07:17.782Z,980.5
2017-02-24T00:07:58.380Z,980.6
2017-02-24T00:08:38.985Z,980.55
2017-02-24T00:09:19.579Z,980.68
2017-02-24T00:10:00.171Z,980.55
2017-02-24T00:10:40.771Z,980.49
2017-02-24T00:11:21.375Z,980.54
2017-02-24T00:12:02.034Z,980.52
2017-02-24T00:12:42.693Z,980.57
2017-02-24T00:13:23.260Z,980.54
2017-02-24T00:14:03.855Z,980.64
2017-02-24T00:14:44.462Z,980.64
2017-02-24T00:15:25.050Z,980.58
2017-02-24T00:16:05.628Z,980.56
2017-02-24T00:16:46.232Z,980.57
2017-02-24T00:17:26.809Z,980.54
2017-02-24T00:18:07.372Z,980.63
2017-02-24T00:18:47.957Z,980.58
2017-02-24T00:19:28.551Z,980.6
2017-02-24T00:20:09.169Z,980.71
2017-02-24T00:20:49.764Z,980.54
2017-02-24T00:21:30.343Z,980.56
2017-02-24T00:22:10.942Z,980.55
2017-02-24T00:22:51.541Z,980.46
2017-02-24T00:23:32.123Z,980.62
2017-02-24T00:24:12.750Z,980.58
2017-02-24T00:24:53.332Z,980.48
2017-02-24T00:25:33.904Z,980.61
2017-02-24T00:26:14.479Z,980.53
2017-02-24T00:26:55.061Z,980.67
2017-02-24T00:27:35.637Z,980.58
2017-02-24T00:28:16.253Z,980.59
2017-02-24T00:28:56.855Z,980.6
2017-02-24T00:29:37.451Z,980.61
2017-02-24T00:30:18.045Z,980.67
2017-02-24T00:30:58.663Z,980.61
2017-02-24T00:31:39.253Z,980.7
2017-02-24T00:32:19.839Z,980.66
2017-02-24T00:33:00.467Z,980.7
2017-02-24T00:33:41.057Z,980.73
2017-02-24T00:34:21.680Z,980.75
2017-02-24T00:35:02.279Z,980.63
2017-02-24T00:35:42.858Z,980.73
2017-02-24T00:36:23.427Z,980.78
2017-02-24T00:37:03.990Z,980.76
2017-02-24T00:37:44.630Z,980.78
2017-02-24T00:38:25.234Z,980.8
2017-02-24T00:39:05.854Z,980.87
2017-02-24T00:39:46.429Z,980.87
2017-02-24T00:40:27.049Z,980.83
2017-02-24T00:41:07.626Z,980.79
2017-02-24T00:41:48.195Z,980.75
2017-02-24T00:42:28.768Z,980.9
2017-02-24T00:43:09.338Z,980.86
2017-02-24T00:43:49.903Z,980.93
2017-02-24T00:44:30.489Z,980.93
2017-02-24T00:45:11.070Z,980.94
2017-02-24T00:45:51.630Z,980.92
2017-02-24T00:46:32.212Z,980.94
2017-02-24T00:47:12.787Z,980.97
2017-02-24T00:47:53.356Z,980.91
2017-02-24T00:48:33.967Z,981.01
2017-02-24T00:49:14.551Z,980.9
2017-02-24T00:49:55.145Z,981.04
2017-02-24T00:50:35.720Z,981.01
2017-02-24T00:51:16.301Z,981.1
2017-02-24T00:51:56.971Z,981
2017-02-24T00:52:37.555Z,981.04
2017-02-24T00:53:18.153Z,981.07
2017-02-24T00:53:58.716Z,981.18
2017-02-24T00:54:39.307Z,981.02
2017-02-24T00:55:19.893Z,981.06
2017-02-24T00:56:00.468Z,981.09
2017-02-24T00:56:41.049Z,981.17
2017-02-24T00:57:21.608Z,981.08
2017-02-24T00:58:02.185Z,981.26
2017-02-24T00:58:42.793Z,981.09
2017-02-24T00:59:23.393Z,981.18
2017-02-24T01:00:03.977Z,981.3
2017-02-24T01:00:44.559Z,981.12
2017-02-24T01:01:25.150Z,981.2
2017-02-24T01:02:05.776Z,981.24
2017-02-24T01:02:46.350Z,981.13
2017-02-24T01:03:26.926Z,981.1
2017-02-24T01:04:07.532Z,981.17
2017-02-24T01:04:48.102Z,981.21
2017-02-24T01:05:28.675Z,981.27
2017-02-24T01:06:09.248Z,981.27
2017-02-24T01:06:49.937Z,981.2
2017-02-24T01:07:30.506Z,981.09
2017-02-24T01:08:11.085Z,981.25
2017-02-24T01:08:51.672Z,981.31
2017-02-24T01:09:32.245Z,981.08
2017-02-24T01:10:12.833Z,981.24
2017-02-24T01:10:53.444Z,981.18
2017-02-24T01:11:34.019Z,981.45
2017-02-24T01:12:14.612Z,981.35
2017-02-24T01:12:55.213Z,981.24
2017-02-24T01:13:35.792Z,981.25
2017-02-24T01:14:16.348Z,981.2
2017-02-24T01:14:56.911Z,981.14
2017-02-24T01:15:37.502Z,981.18
2017-02-24T01:16:18.046Z,981.07
2017-02-24T01:16:58.624Z,981.12
2017-02-24T01:17:39.205Z,981.36
2017-02-24T01:18:19.778Z,981.26
2017-02-24T01:19:00.357Z,981.33
2017-02-24T01:19:40.920Z,981.37
2017-02-24T01:20:21.497Z,981.41
2017-02-24T01:21:02.066Z,981.49
2017-02-24T01:21:42.646Z,981.56
2017-02-24T01:22:23.237Z,981.39
2017-02-24T01:23:03.815Z,981.51
2017-02-24T01:23:44.472Z,981.59
2017-02-24T01:24:25.049Z,981.5
2017-02-24T01:25:05.604Z,981.39
2017-02-24T01:25:46.186Z,981.37
2017-02-24T01:26:26.775Z,981.48
2017-02-24T01:27:07.356Z,981.46
2017-02-24T01:27:47.941Z,981.46
2017-02-24T01:28:28.532Z,981.4
2017-02-24T01:29:09.106Z,981.43
2017-02-24T01:29:49.695Z,981.44
2017-02-24T01:30:30.278Z,981.45
2017-02-24T01:31:10.862Z,981.49
2017-02-24T01:31:51.415Z,981.48
2017-02-24T01:32:32.063Z,981.51
2017-02-24T01:33:12.688Z,981.43
2017-02-24T01:33:53.260Z,981.47
2017-02-24T01:34:33.836Z,981.39
2017-02-24T01:35:14.433Z,981.37
2017-02-24T01:35:54.988Z,981.46
2017-02-24T01:36:35.573Z,981.4
2017-02-24T01:37:16.173Z,981.43
2017-02-24T01:37:56.736Z,981.48
2017-02-24T01:38:37.307Z,981.47
2017-02-24T01:39:17.907Z,981.42
2017-02-24T01:39:58.492Z,981.51
2017-02-24T01:40:39.057Z,981.36
2017-02-24T01:41:19.632Z,981.51
2017-02-24T01:42:00.229Z,981.53
2017-02-24T01:42:40.806Z,981.45
2017-02-24T01:43:21.413Z,981.37
2017-02-24T01:44:01.980Z,981.52
2017-02-24T01:44:42.581Z,981.51
2017-02-24T01:45:23.175Z,981.47
2017-02-24T01:46:03.758Z,981.5
2017-02-24T01:46:44.339Z,981.57
2017-02-24T01:47:24.908Z,981.4
2017-02-24T01:48:05.464Z,981.54
2017-02-24T01:48:46.052Z,981.53
2017-02-24T01:49:26.643Z,981.42
2017-02-24T01:50:07.229Z,981.45
2017-02-24T01:50:47.819Z,981.3
2017-02-24T01:51:28.396Z,981.41
2017-02-24T01:52:09.010Z,981.49
2017-02-24T01:52:49.586Z,981.43
2017-02-24T01:53:30.153Z,981.4
2017-02-24T01:54:10.738Z,981.5
2017-02-24T01:54:51.315Z,981.34
2017-02-24T01:55:31.871Z,981.54
2017-02-24T01:56:12.463Z,981.48
2017-02-24T01:56:53.084Z,981.37
2017-02-24T01:57:33.665Z,981.42
2017-02-24T01:58:14.242Z,981.45
2017-02-24T01:58:54.814Z,981.45
2017-02-24T01:59:35.382Z,981.44
2017-02-24T02:00:15.971Z,981.45
2017-02-24T02:00:56.540Z,981.54
2017-02-24T02:01:37.126Z,981.51
2017-02-24T02:02:17.706Z,981.58
2017-02-24T02:02:58.277Z,981.5
2017-02-24T02:03:38.841Z,981.52
2017-02-24T02:04:19.405Z,981.53
2017-02-24T02:04:59.980Z,981.53
2017-02-24T02:05:40.541Z,981.53
2017-02-24T02:06:21.101Z,981.62
2017-02-24T02:07:01.736Z,981.65
2017-02-24T02:07:42.294Z,981.59
2017-02-24T02:08:22.879Z,981.54
2017-02-24T02:09:03.464Z,981.59
2017-02-24T02:09:44.063Z,981.61
2017-02-24T02:10:24.637Z,981.65
2017-02-24T02:11:05.251Z,981.45
2017-02-24T02:11:45.827Z,981.63
2017-02-24T02:12:26.395Z,981.68
2017-02-24T02:13:06.960Z,981.67
2017-02-24T02:13:48.032Z,981.62
2017-02-24T02:14:28.622Z,981.6
2017-02-24T02:15:09.195Z,981.69
2017-02-24T02:15:49.789Z,981.58
2017-02-24T02:16:30.347Z,981.74
2017-02-24T02:17:10.907Z,981.74
2017-02-24T02:17:51.491Z,981.81
2017-02-24T02:18:32.063Z,981.75
2017-02-24T02:19:12.644Z,981.72
2017-02-24T02:19:53.214Z,981.73
2017-02-24T02:20:33.850Z,981.72
2017-02-24T02:21:14.427Z,981.72
2017-02-24T02:21:55.009Z,981.66
2017-02-24T02:22:35.578Z,981.78
2017-02-24T02:23:16.194Z,981.74
2017-02-24T02:23:56.767Z,981.78
2017-02-24T02:24:37.346Z,981.84
2017-02-24T02:25:17.964Z,981.83
2017-02-24T02:25:58.546Z,981.74
2017-02-24T02:26:39.109Z,981.8
2017-02-24T02:27:19.694Z,981.77
2017-02-24T02:28:00.261Z,981.8
2017-02-24T02:28:40.832Z,981.74
2017-02-24T02:29:21.411Z,981.82
2017-02-24T02:30:01.972Z,981.76
2017-02-24T02:30:42.543Z,981.91
2017-02-24T02:31:23.120Z,981.85
2017-02-24T02:32:03.733Z,981.73
2017-02-24T02:32:44.327Z,981.74
2017-02-24T02:33:24.895Z,981.75
2017-02-24T02:34:05.460Z,981.74
2017-02-24T02:34:46.029Z,981.71
2017-02-24T02:35:26.638Z,981.78
2017-02-24T02:36:07.248Z,981.7
2017-02-24T02:36:47.815Z,981.74
2017-02-24T02:37:28.389Z,981.72
2017-02-24T02:38:08.960Z,981.67
2017-02-24T02:38:49.554Z,981.77
2017-02-24T02:39:30.140Z,981.67
2017-02-24T02:40:10.748Z,981.71
2017-02-24T02:40:51.333Z,981.86
2017-02-24T02:41:31.905Z,981.76
2017-02-24T02:42:12.509Z,981.8
2017-02-24T02:42:53.090Z,981.82
2017-02-24T02:43:33.653Z,981.77
2017-02-24T02:44:14.220Z,981.81
2017-02-24T02:44:54.813Z,981.85
2017-02-24T02:45:35.432Z,981.83
2017-02-24T02:46:16.005Z,981.9
2017-02-24T02:46:56.611Z,981.92
2017-02-24T02:47:37.168Z,981.86
2017-02-24T02:48:17.718Z,981.88
2017-02-24T02:48:58.273Z,981.97
2017-02-24T02:49:38.857Z,981.98
2017-02-24T02:50:19.451Z,981.99
2017-02-24T02:51:00.027Z,981.88
2017-02-24T02:51:40.633Z,981.95
2017-02-24T02:52:21.234Z,981.99
2017-02-24T02:53:01.829Z,982.01
2017-02-24T02:53:42.418Z,982.03
2017-02-24T02:54:22.995Z,982.01
2017-02-24T02:55:03.583Z,982.09
2017-02-24T02:55:44.174Z,982.03
2017-02-24T02:56:24.754Z,982.07
2017-02-24T02:57:05.335Z,982.11
2017-02-24T02:57:45.923Z,982.07
2017-02-24T02:58:26.560Z,982.06
2017-02-24T02:59:07.105Z,982.12
2017-02-24T02:59:47.696Z,982.03
2017-02-24T03:00:28.270Z,982.02
2017-02-24T03:01:08.842Z,982.09
2017-02-24T03:01:49.420Z,982.05
2017-02-24T03:02:29.993Z,982.12
2017-02-24T03:03:10.567Z,982.13
2017-02-24T03:03:51.141Z,982.21
2017-02-24T03:04:31.727Z,982.18
2017-02-24T03:05:12.289Z,982.17
2017-02-24T03:05:52.867Z,982.24
2017-02-24T03:06:33.433Z,982.19
2017-02-24T03:07:14.001Z,982.19
2017-02-24T03:07:54.598Z,982.21
2017-02-24T03:08:35.165Z,982.14
2017-02-24T03:09:15.754Z,982.2
2017-02-24T03:09:56.344Z,982.27
2017-02-24T03:10:36.917Z,982.32
2017-02-24T03:11:17.497Z,982.33
2017-02-24T03:11:58.052Z,982.18
2017-02-24T03:12:38.636Z,982.26
2017-02-24T03:13:19.209Z,982.26
2017-02-24T03:13:59.775Z,982.3
2017-02-24T03:14:40.354Z,982.25
2017-02-24T03:15:20.933Z,982.3
2017-02-24T03:16:01.561Z,982.34
2017-02-24T03:16:42.147Z,982.27
2017-02-24T03:17:22.718Z,982.35
2017-02-24T03:18:03.275Z,982.29
2017-02-24T03:18:43.843Z,982.32
2017-02-24T03:19:24.405Z,982.24
2017-02-24T03:20:04.969Z,982.39
2017-02-24T03:20:45.550Z,982.33
2017-02-24T03:21:26.198Z,982.38
2017-02-24T03:22:06.814Z,982.33
2017-02-24T03:22:47.381Z,982.44
2017-02-24T03:23:27.957Z,982.33
2017-02-24T03:24:08.513Z,982.41
2017-02-24T03:24:49.135Z,982.38
2017-02-24T03:25:29.715Z,982.33
2017-02-24T03:26:10.302Z,982.53
2017-02-24T03:26:50.867Z,982.4
2017-02-24T03:27:31.514Z,982.34
2017-02-24T03:28:12.091Z,982.53
2017-02-24T03:28:52.673Z,982.52
2017-02-24T03:29:33.276Z,982.55
2017-02-24T03:30:13.864Z,982.54
2017-02-24T03:30:54.454Z,982.59
2017-02-24T03:31:35.046Z,982.53
2017-02-24T03:32:15.599Z,982.6
2017-02-24T03:32:56.187Z,982.64
2017-02-24T03:33:36.766Z,982.63
2017-02-24T03:34:18.110Z,982.71
2017-02-24T03:34:58.717Z,982.74
2017-02-24T03:35:39.298Z,982.57
2017-02-24T03:36:19.873Z,982.56
2017-02-24T03:37:00.459Z,982.56
2017-02-24T03:37:41.065Z,982.6
2017-02-24T03:38:21.641Z,982.62
2017-02-24T03:39:02.267Z,982.62
2017-02-24T03:39:42.890Z,982.66
2017-02-24T03:40:23.484Z,982.54
2017-02-24T03:41:04.083Z,982.67
2017-02-24T03:41:44.661Z,982.7
2017-02-24T03:42:25.224Z,982.66
2017-02-24T03:43:05.830Z,982.76
2017-02-24T03:43:46.418Z,982.6
2017-02-24T03:44:26.995Z,982.54
2017-02-24T03:45:07.584Z,982.67
2017-02-24T03:45:48.187Z,982.68
2017-02-24T03:46:28.747Z,982.67
2017-02-24T03:47:09.337Z,982.7
2017-02-24T03:47:49.892Z,982.65
2017-02-24T03:48:30.444Z,982.64
2017-02-24T03:49:11.026Z,982.72
2017-02-24T03:49:51.601Z,982.67
2017-02-24T03:50:32.187Z,982.7
2017-02-24T03:51:12.769Z,982.75
2017-02-24T03:51:53.351Z,982.79
2017-02-24T03:52:33.919Z,982.78
2017-02-24T03:53:14.492Z,982.76
2017-02-24T03:53:55.093Z,982.79
2017-02-24T03:54:35.675Z,982.82
2017-02-24T03:55:16.315Z,982.74
2017-02-24T03:55:56.898Z,982.77
2017-02-24T03:56:37.495Z,982.87
2017-02-24T03:57:18.098Z,982.93
2017-02-24T03:57:58.655Z,982.9
2017-02-24T03:58:39.229Z,982.89
2017-02-24T03:59:19.807Z,982.92
2017-02-24T04:00:00.380Z,982.9
2017-02-24T04:00:40.956Z,982.96
2017-02-24T04:01:21.565Z,982.96
2017-02-24T04:02:02.174Z,982.98
2017-02-24T04:02:42.745Z,983.02
2017-02-24T04:03:23.341Z,982.92
2017-02-24T04:04:03.925Z,982.98
2017-02-24T04:04:44.504Z,982.95
2017-02-24T04:05:25.089Z,982.95
2017-02-24T04:06:05.677Z,982.93
2017-02-24T04:06:46.255Z,982.87
2017-02-24T04:07:26.839Z,982.96
2017-02-24T04:08:07.416Z,983.03
2017-02-24T04:08:47.976Z,982.96
2017-02-24T04:09:28.554Z,983.04
2017-02-24T04:10:09.131Z,983.07
2017-02-24T04:10:49.694Z,982.96
2017-02-24T04:11:30.263Z,983.06
2017-02-24T04:12:10.864Z,983
2017-02-24T04:12:51.453Z,983.02
2017-02-24T04:13:32.029Z,983.07
2017-02-24T04:14:12.608Z,983.07
2017-02-24T04:14:53.167Z,983.02
2017-02-24T04:15:33.749Z,983.06
2017-02-24T04:16:14.331Z,983
2017-02-24T04:16:54.915Z,983.04
2017-02-24T04:17:35.509Z,983.13
2017-02-24T04:18:16.238Z,983.1
2017-02-24T04:18:56.873Z,983.12
2017-02-24T04:19:37.473Z,983.15
2017-02-24T04:20:18.083Z,983.13
2017-02-24T04:20:58.697Z,983.21
2017-02-24T04:21:39.265Z,983.16
2017-02-24T04:22:19.839Z,983.22
2017-02-24T04:23:00.421Z,983.18
2017-02-24T04:23:40.990Z,983.16
2017-02-24T04:24:21.586Z,983.15
2017-02-24T04:25:02.179Z,983.25
2017-02-24T04:25:42.751Z,983.23
2017-02-24T04:26:23.324Z,983.18
2017-02-24T04:27:03.911Z,983.12
2017-02-24T04:27:44.476Z,983.29
2017-02-24T04:28:25.062Z,983.28
2017-02-24T04:29:05.726Z,983.2
2017-02-24T04:29:46.268Z,983.24
2017-02-24T04:30:26.851Z,983.31
2017-02-24T04:31:07.460Z,983.22
2017-02-24T04:31:48.034Z,983.29
2017-02-24T04:32:28.615Z,983.3
2017-02-24T04:33:09.236Z,983.28
2017-02-24T04:33:49.845Z,983.3
2017-02-24T04:34:30.418Z,983.33
2017-02-24T04:35:10.986Z,983.33
2017-02-24T04:35:51.567Z,983.39
2017-02-24T04:36:32.140Z,983.39
2017-02-24T04:37:12.722Z,983.4
2017-02-24T04:37:53.321Z,983.41
2017-02-24T04:38:33.946Z,983.49
2017-02-24T04:39:14.540Z,983.39
2017-02-24T04:39:55.121Z,983.51
2017-02-24T04:40:35.709Z,983.57
2017-02-24T04:41:16.290Z,983.6
2017-02-24T04:41:56.885Z,983.62
2017-02-24T04:42:37.452Z,983.77
2017-02-24T04:43:18.024Z,983.75
2017-02-24T04:43:58.611Z,983.77
2017-02-24T04:44:39.182Z,983.88
2017-02-24T04:45:19.748Z,983.86
2017-02-24T04:46:00.363Z,983.99
2017-02-24T04:46:40.941Z,983.69
2017-02-24T04:47:21.549Z,983.97
2017-02-24T04:48:02.119Z,983.99
2017-02-24T04:48:42.711Z,983.99
2017-02-24T04:49:23.293Z,983.98
2017-02-24T04:50:03.849Z,984.02
2017-02-24T04:50:44.464Z,983.96
2017-02-24T04:51:25.037Z,984.09
2017-02-24T04:52:05.657Z,984.21
2017-02-24T04:52:46.262Z,984.02
2017-02-24T04:53:26.861Z,984.09
2017-02-24T04:54:07.453Z,984.05
2017-02-24T04:54:48.037Z,984.19
2017-02-24T04:55:28.639Z,984.08
2017-02-24T04:56:09.209Z,984.1
2017-02-24T04:56:49.850Z,984.22
2017-02-24T04:57:30.366Z,984.28
2017-02-24T04:58:10.949Z,984.31
2017-02-24T04:58:51.512Z,984.31
2017-02-24T04:59:32.096Z,984.32
2017-02-24T05:00:12.712Z,984.18
2017-02-24T05:00:53.291Z,984.34
2017-02-24T05:01:33.883Z,984.29
2017-02-24T05:02:14.467Z,984.4
2017-02-24T05:02:55.087Z,984.39
2017-02-24T05:03:35.657Z,984.41
2017-02-24T05:04:16.270Z,984.48
2017-02-24T05:04:56.868Z,984.45
2017-02-24T05:05:37.456Z,984.42
2017-02-24T05:06:18.041Z,984.52
2017-02-24T05:06:58.650Z,984.6
2017-02-24T05:07:39.234Z,984.5
2017-02-24T05:08:19.826Z,984.57
2017-02-24T05:09:00.428Z,984.64
2017-02-24T05:09:40.999Z,984.57
2017-02-24T05:10:21.576Z,984.67
2017-02-24T05:11:02.147Z,984.53
2017-02-24T05:11:42.751Z,984.55
2017-02-24T05:12:23.307Z,984.68
2017-02-24T05:13:03.949Z,984.67
2017-02-24T05:13:44.541Z,984.75
2017-02-24T05:14:25.114Z,984.74
2017-02-24T05:15:05.708Z,984.78
2017-02-24T05:15:46.244Z,984.85
2017-02-24T05:16:26.831Z,984.77
2017-02-24T05:17:07.412Z,984.85
2017-02-24T05:17:47.981Z,984.86
2017-02-24T05:18:28.556Z,984.85
2017-02-24T05:19:09.139Z,984.9
2017-02-24T05:19:49.707Z,984.96
2017-02-24T05:20:30.272Z,984.95
2017-02-24T05:21:10.848Z,985.08
2017-02-24T05:21:51.442Z,985.16
2017-02-24T05:22:32.022Z,985.06
2017-02-24T05:23:12.594Z,985.17
2017-02-24T05:23:53.168Z,985.15
2017-02-24T05:24:33.757Z,985.16
2017-02-24T05:25:14.408Z,985.19
2017-02-24T05:25:54.983Z,985.23
2017-02-24T05:26:35.576Z,985.25
2017-02-24T05:27:16.153Z,985.33
2017-02-24T05:27:56.780Z,985.3
2017-02-24T05:28:37.372Z,985.3
2017-02-24T05:29:17.942Z,985.28
2017-02-24T05:29:58.515Z,985.45
2017-02-24T05:30:39.084Z,985.34
2017-02-24T05:31:19.676Z,985.26
2017-02-24T05:32:00.295Z,985.36
2017-02-24T05:32:40.902Z,985.51
2017-02-24T05:33:21.493Z,985.56
2017-02-24T05:34:02.070Z,985.72
2017-02-24T05:34:42.688Z,985.56
2017-02-24T05:35:23.304Z,985.66
2017-02-24T05:36:03.877Z,985.68
2017-02-24T05:36:44.452Z,985.6
2017-02-24T05:37:25.071Z,985.82
2017-02-24T05:38:05.660Z,985.64
2017-02-24T05:38:46.215Z,985.82
2017-02-24T05:39:26.790Z,985.91
2017-02-24T05:40:07.391Z,985.93
2017-02-24T05:40:47.958Z,985.99
2017-02-24T05:41:28.542Z,986.06
2017-02-24T05:42:09.113Z,986.13
2017-02-24T05:42:49.706Z,986.15
2017-02-24T05:43:30.304Z,986.19
2017-02-24T05:44:10.896Z,986.47
2017-02-24T05:44:51.463Z,986.41
2017-02-24T05:45:32.044Z,986.39
2017-02-24T05:46:12.620Z,986.48
2017-02-24T05:46:53.190Z,986.52
2017-02-24T05:47:33.819Z,986.49
2017-02-24T05:48:14.419Z,986.66
2017-02-24T05:48:54.994Z,986.81
2017-02-24T05:49:35.613Z,986.75
2017-02-24T05:50:16.158Z,986.77
2017-02-24T05:50:56.733Z,986.85
2017-02-24T05:51:37.302Z,986.72
2017-02-24T05:52:17.918Z,986.89
2017-02-24T05:52:58.504Z,987.01
2017-02-24T05:53:39.090Z,987.01
2017-02-24T05:54:19.670Z,987.07
2017-02-24T05:55:00.238Z,987.06
2017-02-24T05:55:40.807Z,987.12
2017-02-24T05:56:21.387Z,987.09
2017-02-24T05:57:01.951Z,987.24
2017-02-24T05:57:42.540Z,987.19
2017-02-24T05:58:23.118Z,987.21
2017-02-24T05:59:03.692Z,987.41
2017-02-24T05:59:44.272Z,987.32
2017-02-24T06:00:24.857Z,987.42
2017-02-24T06:01:05.438Z,987.27
2017-02-24T06:01:45.999Z,987.35
2017-02-24T06:02:26.566Z,987.49
2017-02-24T06:03:07.148Z,987.45
2017-02-24T06:03:47.734Z,987.57
2017-02-24T06:04:28.313Z,987.57
2017-02-24T06:05:08.877Z,987.53
2017-02-24T06:05:49.441Z,987.61
2017-02-24T06:06:30.029Z,987.7
2017-02-24T06:07:10.619Z,987.64
2017-02-24T06:07:51.204Z,987.71
2017-02-24T06:08:31.798Z,987.73
2017-02-24T06:09:12.385Z,987.82
2017-02-24T06:09:52.989Z,987.87
2017-02-24T06:10:33.564Z,987.95
2017-02-24T06:11:14.162Z,987.84
2017-02-24T06:11:54.737Z,987.8
2017-02-24T06:12:35.306Z,987.92
2017-02-24T06:13:15.895Z,987.94
2017-02-24T06:13:56.477Z,987.98
2017-02-24T06:14:37.060Z,988.1
2017-02-24T06:15:17.685Z,988.01
2017-02-24T06:15:58.291Z,987.97
2017-02-24T06:16:38.866Z,988.09
2017-02-24T06:17:19.420Z,988.19
2017-02-24T06:18:00.005Z,988.06
2017-02-24T06:18:40.580Z,988.13
2017-02-24T06:19:21.183Z,988.24
2017-02-24T06:20:01.830Z,988.26
2017-02-24T06:20:42.466Z,988.2
2017-02-24T06:21:23.081Z,988.35
2017-02-24T06:22:03.689Z,988.38
2017-02-24T06:22:44.285Z,988.16
2017-02-24T06:23:24.879Z,988.38
2017-02-24T06:24:05.469Z,988.41
2017-02-24T06:24:46.042Z,988.42
2017-02-24T06:25:26.695Z,988.44
2017-02-24T06:26:07.283Z,988.46
2017-02-24T06:26:47.852Z,988.5
2017-02-24T06:27:28.440Z,988.45
2017-02-24T06:28:09.012Z,988.5
2017-02-24T06:28:49.632Z,988.48
2017-02-24T06:29:30.196Z,988.55
2017-02-24T06:30:10.759Z,988.59
2017-02-24T06:30:51.380Z,988.66
2017-02-24T06:31:31.952Z,988.64
2017-02-24T06:32:12.521Z,988.61
2017-02-24T06:32:53.092Z,988.86
2017-02-24T06:33:33.681Z,988.75
2017-02-24T06:34:14.276Z,988.82
2017-02-24T06:34:54.852Z,988.67
2017-02-24T06:35:35.440Z,988.86
2017-02-24T06:36:16.043Z,988.87
2017-02-24T06:36:56.621Z,988.82
2017-02-24T06:37:37.190Z,988.98
2017-02-24T06:38:17.777Z,989
2017-02-24T06:38:58.366Z,989.05
2017-02-24T06:39:38.994Z,989.12
2017-02-24T06:40:19.604Z,989.12
2017-02-24T06:41:00.188Z,989.09
2017-02-24T06:41:40.757Z,989.13
2017-02-24T06:42:21.333Z,989.21
2017-02-24T06:43:01.903Z,989.16
2017-02-24T06:43:42.474Z,989.26
2017-02-24T06:44:23.036Z,989.26
2017-02-24T06:45:03.608Z,989.32
2017-02-24T06:45:44.182Z,989.31
2017-02-24T06:46:24.761Z,989.27
2017-02-24T06:47:05.313Z,989.37
2017-02-24T06:47:45.889Z,989.45
2017-02-24T06:48:26.466Z,989.41
2017-02-24T06:49:07.052Z,989.41
2017-02-24T06:49:47.641Z,989.45
2017-02-24T06:50:28.209Z,989.52
2017-02-24T06:51:08.781Z,989.47
2017-02-24T06:51:49.343Z,989.59
2017-02-24T06:52:29.923Z,989.48
2017-02-24T06:53:10.483Z,989.41
2017-02-24T06:53:51.348Z,989.63
2017-02-24T06:54:31.856Z,989.44
2017-02-24T06:55:12.446Z,989.66
2017-02-24T06:55:53.024Z,989.71
2017-02-24T06:56:33.703Z,989.75
2017-02-24T06:57:14.383Z,989.83
2017-02-24T06:57:54.996Z,989.8
2017-02-24T06:58:35.743Z,989.93
2017-02-24T06:59:16.316Z,990.03
2017-02-24T06:59:56.916Z,989.89
2017-02-24T07:00:37.499Z,989.98
2017-02-24T07:01:18.167Z,990.04
2017-02-24T07:01:58.701Z,990.05
2017-02-24T07:02:39.263Z,990.09
2017-02-24T07:03:19.873Z,990.05
2017-02-24T07:04:00.441Z,990.11
2017-02-24T07:04:41.018Z,990.16
2017-02-24T07:05:21.600Z,990.22
2017-02-24T07:06:02.195Z,990.2
2017-02-24T07:06:42.772Z,990.07
2017-02-24T07:07:23.345Z,990.3
2017-02-24T07:08:03.908Z,990.36
2017-02-24T07:08:44.475Z,990.43
2017-02-24T07:09:25.064Z,990.45
2017-02-24T07:10:05.674Z,990.4
2017-02-24T07:10:46.265Z,990.46
2017-02-24T07:11:26.817Z,990.6
2017-02-24T07:12:07.387Z,990.61
2017-02-24T07:12:47.988Z,990.57
2017-02-24T07:13:28.589Z,990.55
2017-02-24T07:14:09.157Z,990.69
2017-02-24T07:14:49.733Z,990.73
2017-02-24T07:15:30.323Z,990.8
2017-02-24T07:16:10.883Z,990.87
2017-02-24T07:16:51.449Z,990.83
2017-02-24T07:17:32.047Z,990.89
2017-02-24T07:18:12.607Z,990.82
2017-02-24T07:18:53.201Z,990.97
2017-02-24T07:19:33.781Z,991.03
2017-02-24T07:20:14.332Z,991.07
2017-02-24T07:20:54.899Z,991.12
2017-02-24T07:21:35.466Z,991.11
2017-02-24T07:22:16.045Z,991.17
2017-02-24T07:22:56.604Z,991.34
2017-02-24T07:23:37.184Z,991.37
2017-02-24T07:24:17.791Z,991.38
2017-02-24T07:24:58.393Z,991.44
2017-02-24T07:25:39.000Z,991.47
2017-02-24T07:26:19.583Z,991.57
2017-02-24T07:27:00.156Z,991.51
2017-02-24T07:27:40.753Z,991.59
2017-02-24T07:28:21.316Z,991.6
2017-02-24T07:29:01.895Z,991.58
2017-02-24T07:29:42.459Z,991.61
2017-02-24T07:30:23.028Z,991.68
2017-02-24T07:31:03.653Z,991.81
2017-02-24T07:31:44.228Z,991.79
2017-02-24T07:32:24.802Z,991.81
2017-02-24T07:33:05.420Z,991.88
2017-02-24T07:33:47.364Z,991.91
2017-02-24T07:34:28.276Z,991.93
2017-02-24T07:35:08.858Z,991.88
2017-02-24T07:35:49.408Z,991.96
2017-02-24T07:36:30.117Z,991.99
2017-02-24T07:37:10.688Z,992.1
2017-02-24T07:37:51.273Z,992.05
2017-02-24T07:38:31.907Z,992.06
2017-02-24T07:39:12.521Z,992.1
2017-02-24T07:39:53.094Z,992.13
2017-02-24T07:40:33.676Z,992.3
2017-02-24T07:41:14.275Z,992.27
2017-02-24T07:41:54.853Z,992.23
2017-02-24T07:42:35.434Z,992.28
2017-02-24T07:43:16.023Z,992.35
2017-02-24T07:43:56.647Z,992.28
2017-02-24T07:44:37.216Z,992.31
2017-02-24T07:45:17.893Z,992.4
2017-02-24T07:45:58.464Z,992.39
2017-02-24T07:46:39.064Z,992.39
2017-02-24T07:47:19.647Z,992.32
2017-02-24T07:48:00.229Z,992.47
2017-02-24T07:48:40.784Z,992.49
2017-02-24T07:49:21.420Z,992.42
2017-02-24T07:50:02.042Z,992.45
2017-02-24T07:50:42.603Z,992.53
2017-02-24T07:51:23.188Z,992.5
2017-02-24T07:52:03.855Z,992.58
2017-02-24T07:52:44.439Z,992.6
2017-02-24T07:53:25.075Z,992.67
2017-02-24T07:54:06.219Z,992.6
2017-02-24T07:54:46.799Z,992.7
2017-02-24T07:55:27.399Z,992.69
2017-02-24T07:56:07.978Z,992.76
2017-02-24T07:56:48.594Z,992.77
2017-02-24T07:57:29.182Z,992.85
2017-02-24T07:58:09.760Z,992.87
2017-02-24T07:58:50.377Z,992.91
2017-02-24T07:59:30.974Z,992.94
2017-02-24T08:00:11.577Z,992.97
2017-02-24T08:00:52.380Z,992.94
2017-02-24T08:01:32.978Z,993
2017-02-24T08:02:13.761Z,993.02
2017-02-24T08:02:55.043Z,993.09
2017-02-24T08:03:36.729Z,993.1
2017-02-24T08:04:18.581Z,993.07
2017-02-24T08:04:59.332Z,993.24
2017-02-24T08:05:40.097Z,993.15
2017-02-24T08:06:21.089Z,993.17
2017-02-24T08:07:01.936Z,993.18
2017-02-24T08:07:42.727Z,993.26
2017-02-24T08:08:23.533Z,993.34
2017-02-24T08:09:04.323Z,993.35
2017-02-24T08:09:45.082Z,993.34
2017-02-24T08:10:26.093Z,993.41
2017-02-24T08:11:06.884Z,993.42
2017-02-24T08:11:47.611Z,993.48
2017-02-24T08:12:28.409Z,993.46
2017-02-24T08:13:09.097Z,993.45
2017-02-24T08:13:49.965Z,993.51
2017-02-24T08:14:30.708Z,993.57
2017-02-24T08:15:11.593Z,993.6
2017-02-24T08:15:52.406Z,993.61
2017-02-24T08:16:33.179Z,993.63
2017-02-24T08:17:13.922Z,993.74
2017-02-24T08:17:54.668Z,993.68
2017-02-24T08:18:35.448Z,993.74
2017-02-24T08:19:16.313Z,993.78
2017-02-24T08:19:56.999Z,993.77
2017-02-24T08:20:37.752Z,993.82
2017-02-24T08:21:18.400Z,993.88
2017-02-24T08:21:59.209Z,993.87
2017-02-24T08:22:40.170Z,993.89
2017-02-24T08:23:20.986Z,993.94
2017-02-24T08:24:01.852Z,993.98
2017-02-24T08:24:42.578Z,994.02
2017-02-24T08:25:23.350Z,994.06
2017-02-24T08:26:04.180Z,994.1
2017-02-24T08:26:44.964Z,994.14
2017-02-24T08:27:25.747Z,994.1
2017-02-24T08:28:06.482Z,994.21
2017-02-24T08:28:47.202Z,994.25